Quay, New Mexico
Current Conditions -  °F | °C
As of 7:53 PM on Sunday 21 Dec 2014 (Local Time) from KTCC Reporting Station
Clear Clear  
Wind Chill: 44°   Ceiling: Unl
Heat Index: 49°   Visibility: 10mi
Dew Point: 26°   Wind: 13mph
Humidity: 41%   Direction: 280°W
Pressure: 29.63"   Gusts: NA
Location:  34.93°N, 103.76°W
Report Text: KTCC 220253Z AUTO 28011KT 10SM CLR 09/M03 A2963 RMK AO2 SLP022 T00941033 53011
Loading
Personal Weather Stations






























Interactive Weather Map New forecast layout! Learn more

10-Day Weather Forecast

Advertisements
Track Severe Weather on mobile